sensor_id;sensor_type;location;lat;lon;timestamp;P1;durP1;ratioP1;P2;durP2;ratioP2
48487;SDS011;34289;48.572;13.378;2022-11-11T00:01:37;124.07;;;15.30;;
48487;SDS011;34289;48.572;13.378;2022-11-11T00:04:02;182.05;;;15.32;;
48487;SDS011;34289;48.572;13.378;2022-11-11T00:06:28;159.98;;;16.95;;
48487;SDS011;34289;48.572;13.378;2022-11-11T00:08:54;171.52;;;15.85;;
48487;SDS011;34289;48.572;13.378;2022-11-11T00:11:20;253.25;;;17.45;;
48487;SDS011;34289;48.572;13.378;2022-11-11T00:13:46;241.48;;;16.40;;
48487;SDS011;34289;48.572;13.378;2022-11-11T00:16:13;248.18;;;17.38;;
48487;SDS011;34289;48.572;13.378;2022-11-11T00:18:40;162.65;;;15.90;;
48487;SDS011;34289;48.572;13.378;2022-11-11T00:21:25;114.18;;;14.57;;
48487;SDS011;34289;48.572;13.378;2022-11-11T00:24:01;161.45;;;15.13;;
48487;SDS011;34289;48.572;13.378;2022-11-11T00:26:45;250.13;;;16.67;;
48487;SDS011;34289;48.572;13.378;2022-11-11T00:29:11;234.63;;;16.98;;
48487;SDS011;34289;48.572;13.378;2022-11-11T00:31:37;91.78;;;13.40;;
48487;SDS011;34289;48.572;13.378;2022-11-11T00:34:23;143.63;;;14.07;;
48487;SDS011;34289;48.572;13.378;2022-11-11T00:36:49;93.47;;;14.20;;
48487;SDS011;34289;48.572;13.378;2022-11-11T00:39:15;152.77;;;14.05;;
48487;SDS011;34289;48.572;13.378;2022-11-11T00:41:40;45.63;;;11.38;;
48487;SDS011;34289;48.572;13.378;2022-11-11T00:44:06;60.95;;;11.85;;
48487;SDS011;34289;48.572;13.378;2022-11-11T00:46:32;20.42;;;10.15;;
48487;SDS011;34289;48.572;13.378;2022-11-11T00:49:16;19.38;;;10.57;;
48487;SDS011;34289;48.572;13.378;2022-11-11T00:52:00;123.05;;;13.25;;
48487;SDS011;34289;48.572;13.378;2022-11-11T00:54:25;24.15;;;10.18;;
48487;SDS011;34289;48.572;13.378;2022-11-11T00:56:51;56.67;;;10.43;;
48487;SDS011;34289;48.572;13.378;2022-11-11T00:59:16;37.80;;;10.02;;
48487;SDS011;34289;48.572;13.378;2022-11-11T01:01:42;39.40;;;9.95;;
48487;SDS011;34289;48.572;13.378;2022-11-11T01:04:07;30.60;;;9.95;;
48487;SDS011;34289;48.572;13.378;2022-11-11T01:06:33;78.78;;;10.65;;
48487;SDS011;34289;48.572;13.378;2022-11-11T01:09:03;40.05;;;10.13;;
48487;SDS011;34289;48.572;13.378;2022-11-11T01:11:29;87.35;;;11.23;;
48487;SDS011;34289;48.572;13.378;2022-11-11T01:13:55;91.50;;;10.82;;
48487;SDS011;34289;48.572;13.378;2022-11-11T01:16:22;55.72;;;10.90;;
48487;SDS011;34289;48.572;13.378;2022-11-11T01:18:50;73.63;;;9.82;;
48487;SDS011;34289;48.572;13.378;2022-11-11T01:21:18;29.25;;;9.85;;
48487;SDS011;34289;48.572;13.378;2022-11-11T01:23:46;24.85;;;9.63;;
48487;SDS011;34289;48.572;13.378;2022-11-11T01:26:17;33.85;;;9.68;;
48487;SDS011;34289;48.572;13.378;2022-11-11T01:28:48;14.23;;;8.98;;
48487;SDS011;34289;48.572;13.378;2022-11-11T01:31:17;30.27;;;9.00;;
48487;SDS011;34289;48.572;13.378;2022-11-11T01:33:44;48.00;;;9.73;;
48487;SDS011;34289;48.572;13.378;2022-11-11T01:36:11;48.30;;;9.23;;
48487;SDS011;34289;48.572;13.378;2022-11-11T01:38:39;39.95;;;9.18;;
48487;SDS011;34289;48.572;13.378;2022-11-11T01:41:07;59.47;;;9.48;;
48487;SDS011;34289;48.572;13.378;2022-11-11T01:44:40;20.77;;;8.77;;
48487;SDS011;34289;48.572;13.378;2022-11-11T01:47:03;15.98;;;8.90;;
48487;SDS011;34289;48.572;13.378;2022-11-11T01:54:58;61.05;;;9.27;;
48487;SDS011;34289;48.572;13.378;2022-11-11T02:00:27;19.42;;;8.77;;
48487;SDS011;34289;48.572;13.378;2022-11-11T02:02:57;84.15;;;9.52;;
48487;SDS011;34289;48.572;13.378;2022-11-11T02:05:25;22.95;;;8.48;;
48487;SDS011;34289;48.572;13.378;2022-11-11T02:08:11;18.77;;;8.70;;
48487;SDS011;34289;48.572;13.378;2022-11-11T02:10:39;45.22;;;8.50;;
48487;SDS011;34289;48.572;13.378;2022-11-11T02:13:12;77.65;;;9.52;;
48487;SDS011;34289;48.572;13.378;2022-11-11T02:15:57;33.15;;;8.88;;
48487;SDS011;34289;48.572;13.378;2022-11-11T02:18:23;29.00;;;8.02;;
48487;SDS011;34289;48.572;13.378;2022-11-11T02:20:51;45.85;;;8.50;;
48487;SDS011;34289;48.572;13.378;2022-11-11T02:23:24;59.05;;;8.95;;
48487;SDS011;34289;48.572;13.378;2022-11-11T02:25:56;13.23;;;7.82;;
48487;SDS011;34289;48.572;13.378;2022-11-11T02:28:25;30.70;;;8.77;;
48487;SDS011;34289;48.572;13.378;2022-11-11T02:30:53;39.55;;;8.40;;
48487;SDS011;34289;48.572;13.378;2022-11-11T02:33:19;38.80;;;8.27;;
48487;SDS011;34289;48.572;13.378;2022-11-11T02:35:45;19.73;;;9.27;;
48487;SDS011;34289;48.572;13.378;2022-11-11T02:38:21;16.08;;;7.32;;
48487;SDS011;34289;48.572;13.378;2022-11-11T02:40:48;10.32;;;6.95;;
48487;SDS011;34289;48.572;13.378;2022-11-11T02:43:52;12.93;;;7.50;;
48487;SDS011;34289;48.572;13.378;2022-11-11T02:46:18;53.95;;;8.68;;
48487;SDS011;34289;48.572;13.378;2022-11-11T02:48:43;56.72;;;8.82;;
48487;SDS011;34289;48.572;13.378;2022-11-11T02:51:09;40.15;;;8.60;;
48487;SDS011;34289;48.572;13.378;2022-11-11T02:53:35;61.03;;;9.13;;
48487;SDS011;34289;48.572;13.378;2022-11-11T02:56:00;92.80;;;9.73;;
48487;SDS011;34289;48.572;13.378;2022-11-11T02:58:26;83.47;;;10.82;;
48487;SDS011;34289;48.572;13.378;2022-11-11T03:00:51;47.33;;;9.80;;
48487;SDS011;34289;48.572;13.378;2022-11-11T03:03:17;73.78;;;9.48;;
48487;SDS011;34289;48.572;13.378;2022-11-11T03:05:43;104.22;;;10.02;;
48487;SDS011;34289;48.572;13.378;2022-11-11T03:08:08;135.48;;;10.27;;
48487;SDS011;34289;48.572;13.378;2022-11-11T03:10:34;70.35;;;9.80;;
48487;SDS011;34289;48.572;13.378;2022-11-11T03:13:00;71.88;;;9.77;;
48487;SDS011;34289;48.572;13.378;2022-11-11T03:15:25;122.28;;;10.05;;
48487;SDS011;34289;48.572;13.378;2022-11-11T03:17:51;53.92;;;9.25;;
48487;SDS011;34289;48.572;13.378;2022-11-11T03:20:17;28.60;;;8.13;;
48487;SDS011;34289;48.572;13.378;2022-11-11T03:23:02;26.95;;;8.13;;
48487;SDS011;34289;48.572;13.378;2022-11-11T03:25:29;14.45;;;7.65;;
48487;SDS011;34289;48.572;13.378;2022-11-11T03:28:07;11.60;;;6.95;;
48487;SDS011;34289;48.572;13.378;2022-11-11T03:30:38;13.20;;;7.25;;
48487;SDS011;34289;48.572;13.378;2022-11-11T03:33:05;34.00;;;8.07;;
48487;SDS011;34289;48.572;13.378;2022-11-11T03:35:31;45.17;;;8.30;;
48487;SDS011;34289;48.572;13.378;2022-11-11T03:37:57;51.65;;;8.40;;
48487;SDS011;34289;48.572;13.378;2022-11-11T03:40:47;24.92;;;7.78;;
48487;SDS011;34289;48.572;13.378;2022-11-11T03:43:21;75.03;;;8.18;;
48487;SDS011;34289;48.572;13.378;2022-11-11T03:45:48;89.10;;;8.63;;
48487;SDS011;34289;48.572;13.378;2022-11-11T03:48:15;59.25;;;8.30;;
48487;SDS011;34289;48.572;13.378;2022-11-11T03:50:41;141.32;;;9.43;;
48487;SDS011;34289;48.572;13.378;2022-11-11T03:53:06;193.88;;;11.68;;
48487;SDS011;34289;48.572;13.378;2022-11-11T03:55:32;184.70;;;10.65;;
48487;SDS011;34289;48.572;13.378;2022-11-11T03:57:58;82.38;;;8.88;;
48487;SDS011;34289;48.572;13.378;2022-11-11T04:00:25;119.93;;;9.77;;
48487;SDS011;34289;48.572;13.378;2022-11-11T04:08:40;78.82;;;8.48;;
48487;SDS011;34289;48.572;13.378;2022-11-11T04:11:45;101.10;;;8.50;;
48487;SDS011;34289;48.572;13.378;2022-11-11T04:14:12;181.50;;;10.88;;
48487;SDS011;34289;48.572;13.378;2022-11-11T04:16:58;66.32;;;8.25;;
48487;SDS011;34289;48.572;13.378;2022-11-11T04:19:24;35.85;;;7.72;;
48487;SDS011;34289;48.572;13.378;2022-11-11T04:22:08;60.60;;;8.40;;
48487;SDS011;34289;48.572;13.378;2022-11-11T04:24:34;17.70;;;7.78;;
48487;SDS011;34289;48.572;13.378;2022-11-11T04:27:38;17.73;;;7.25;;
48487;SDS011;34289;48.572;13.378;2022-11-11T04:30:06;11.50;;;7.03;;
48487;SDS011;34289;48.572;13.378;2022-11-11T04:32:32;31.63;;;6.97;;
48487;SDS011;34289;48.572;13.378;2022-11-11T04:35:07;17.50;;;7.00;;
48487;SDS011;34289;48.572;13.378;2022-11-11T04:37:35;18.23;;;6.53;;
48487;SDS011;34289;48.572;13.378;2022-11-11T04:40:08;12.45;;;6.30;;
48487;SDS011;34289;48.572;13.378;2022-11-11T04:42:53;36.15;;;6.05;;
48487;SDS011;34289;48.572;13.378;2022-11-11T04:45:18;21.55;;;6.28;;
48487;SDS011;34289;48.572;13.378;2022-11-11T04:48:02;29.05;;;6.68;;
48487;SDS011;34289;48.572;13.378;2022-11-11T04:50:34;58.50;;;7.50;;
48487;SDS011;34289;48.572;13.378;2022-11-11T04:53:02;33.78;;;7.00;;
48487;SDS011;34289;48.572;13.378;2022-11-11T04:55:30;141.43;;;9.32;;
48487;SDS011;34289;48.572;13.378;2022-11-11T04:58:14;68.45;;;7.97;;
48487;SDS011;34289;48.572;13.378;2022-11-11T05:00:40;112.85;;;9.00;;
48487;SDS011;34289;48.572;13.378;2022-11-11T05:03:09;144.20;;;9.85;;
48487;SDS011;34289;48.572;13.378;2022-11-11T05:05:51;23.95;;;7.65;;
48487;SDS011;34289;48.572;13.378;2022-11-11T05:08:41;55.90;;;8.52;;
48487;SDS011;34289;48.572;13.378;2022-11-11T05:11:23;22.98;;;7.47;;
48487;SDS011;34289;48.572;13.378;2022-11-11T05:13:57;12.43;;;7.90;;
48487;SDS011;34289;48.572;13.378;2022-11-11T05:16:53;13.55;;;8.40;;
48487;SDS011;34289;48.572;13.378;2022-11-11T05:19:39;14.43;;;8.68;;
48487;SDS011;34289;48.572;13.378;2022-11-11T05:22:27;14.70;;;8.40;;
48487;SDS011;34289;48.572;13.378;2022-11-11T05:25:14;19.30;;;8.43;;
48487;SDS011;34289;48.572;13.378;2022-11-11T05:27:57;16.17;;;8.35;;
48487;SDS011;34289;48.572;13.378;2022-11-11T05:30:23;19.90;;;7.57;;
48487;SDS011;34289;48.572;13.378;2022-11-11T05:32:50;82.45;;;9.45;;
48487;SDS011;34289;48.572;13.378;2022-11-11T05:35:16;44.50;;;9.20;;
48487;SDS011;34289;48.572;13.378;2022-11-11T05:37:42;13.00;;;8.30;;
48487;SDS011;34289;48.572;13.378;2022-11-11T05:40:09;115.13;;;9.43;;
48487;SDS011;34289;48.572;13.378;2022-11-11T05:42:35;39.38;;;8.57;;
48487;SDS011;34289;48.572;13.378;2022-11-11T05:45:06;46.65;;;10.70;;
48487;SDS011;34289;48.572;13.378;2022-11-11T05:47:32;38.75;;;9.85;;
48487;SDS011;34289;48.572;13.378;2022-11-11T05:49:58;47.08;;;9.07;;
48487;SDS011;34289;48.572;13.378;2022-11-11T05:52:24;82.00;;;10.13;;
48487;SDS011;34289;48.572;13.378;2022-11-11T05:54:50;56.63;;;9.20;;
48487;SDS011;34289;48.572;13.378;2022-11-11T05:57:15;258.10;;;18.25;;
48487;SDS011;34289;48.572;13.378;2022-11-11T05:59:41;87.15;;;10.32;;
48487;SDS011;34289;48.572;13.378;2022-11-11T06:02:07;36.92;;;9.45;;
48487;SDS011;34289;48.572;13.378;2022-11-11T06:04:33;45.78;;;8.48;;
48487;SDS011;34289;48.572;13.378;2022-11-11T06:06:59;32.53;;;7.93;;
48487;SDS011;34289;48.572;13.378;2022-11-11T06:09:25;43.72;;;8.35;;
48487;SDS011;34289;48.572;13.378;2022-11-11T06:11:51;55.75;;;8.98;;
48487;SDS011;34289;48.572;13.378;2022-11-11T06:14:17;22.70;;;8.80;;
48487;SDS011;34289;48.572;13.378;2022-11-11T06:16:43;59.85;;;9.38;;
48487;SDS011;34289;48.572;13.378;2022-11-11T06:19:09;86.63;;;8.52;;
48487;SDS011;34289;48.572;13.378;2022-11-11T06:21:35;27.83;;;8.18;;
48487;SDS011;34289;48.572;13.378;2022-11-11T06:24:21;97.38;;;9.35;;
48487;SDS011;34289;48.572;13.378;2022-11-11T06:26:47;48.55;;;7.43;;
48487;SDS011;34289;48.572;13.378;2022-11-11T06:29:13;29.02;;;6.65;;
48487;SDS011;34289;48.572;13.378;2022-11-11T06:31:56;30.92;;;7.72;;
48487;SDS011;34289;48.572;13.378;2022-11-11T06:34:24;63.95;;;7.95;;
48487;SDS011;34289;48.572;13.378;2022-11-11T06:36:51;121.03;;;8.88;;
48487;SDS011;34289;48.572;13.378;2022-11-11T06:39:17;140.63;;;9.40;;
48487;SDS011;34289;48.572;13.378;2022-11-11T06:41:43;67.53;;;8.82;;
48487;SDS011;34289;48.572;13.378;2022-11-11T06:44:09;155.43;;;10.45;;
48487;SDS011;34289;48.572;13.378;2022-11-11T06:46:35;138.40;;;10.30;;
48487;SDS011;34289;48.572;13.378;2022-11-11T06:49:00;100.18;;;9.02;;
48487;SDS011;34289;48.572;13.378;2022-11-11T06:51:26;36.10;;;8.20;;
48487;SDS011;34289;48.572;13.378;2022-11-11T06:53:51;45.42;;;8.10;;
48487;SDS011;34289;48.572;13.378;2022-11-11T06:56:17;39.90;;;8.52;;
48487;SDS011;34289;48.572;13.378;2022-11-11T06:58:43;60.15;;;8.32;;
48487;SDS011;34289;48.572;13.378;2022-11-11T07:01:09;71.93;;;9.30;;
48487;SDS011;34289;48.572;13.378;2022-11-11T07:03:35;158.80;;;10.48;;
48487;SDS011;34289;48.572;13.378;2022-11-11T07:06:02;86.40;;;9.80;;
48487;SDS011;34289;48.572;13.378;2022-11-11T07:08:28;82.25;;;8.93;;
48487;SDS011;34289;48.572;13.378;2022-11-11T07:10:54;53.10;;;10.00;;
48487;SDS011;34289;48.572;13.378;2022-11-11T07:13:20;47.38;;;9.02;;
48487;SDS011;34289;48.572;13.378;2022-11-11T07:15:47;15.32;;;8.45;;
48487;SDS011;34289;48.572;13.378;2022-11-11T07:18:12;12.95;;;8.80;;
48487;SDS011;34289;48.572;13.378;2022-11-11T07:20:38;107.72;;;10.38;;
48487;SDS011;34289;48.572;13.378;2022-11-11T07:23:05;262.23;;;13.32;;
48487;SDS011;34289;48.572;13.378;2022-11-11T07:25:31;34.40;;;8.63;;
48487;SDS011;34289;48.572;13.378;2022-11-11T07:27:57;36.67;;;8.45;;
48487;SDS011;34289;48.572;13.378;2022-11-11T07:30:23;26.80;;;8.35;;
48487;SDS011;34289;48.572;13.378;2022-11-11T07:32:50;71.00;;;9.25;;
48487;SDS011;34289;48.572;13.378;2022-11-11T07:35:19;101.10;;;9.00;;
48487;SDS011;34289;48.572;13.378;2022-11-11T07:37:45;54.38;;;9.35;;
48487;SDS011;34289;48.572;13.378;2022-11-11T07:40:12;47.25;;;9.02;;
48487;SDS011;34289;48.572;13.378;2022-11-11T07:42:39;23.38;;;9.55;;
48487;SDS011;34289;48.572;13.378;2022-11-11T07:45:06;48.70;;;9.98;;
48487;SDS011;34289;48.572;13.378;2022-11-11T07:47:33;39.47;;;9.30;;
48487;SDS011;34289;48.572;13.378;2022-11-11T07:49:59;71.80;;;10.15;;
48487;SDS011;34289;48.572;13.378;2022-11-11T07:52:26;17.58;;;9.25;;
48487;SDS011;34289;48.572;13.378;2022-11-11T07:54:52;156.10;;;13.23;;
48487;SDS011;34289;48.572;13.378;2022-11-11T07:57:18;66.50;;;9.73;;
48487;SDS011;34289;48.572;13.378;2022-11-11T07:59:43;94.15;;;10.45;;
48487;SDS011;34289;48.572;13.378;2022-11-11T08:02:09;53.35;;;9.88;;
48487;SDS011;34289;48.572;13.378;2022-11-11T08:04:36;26.75;;;7.80;;
48487;SDS011;34289;48.572;13.378;2022-11-11T08:07:02;43.55;;;10.02;;
48487;SDS011;34289;48.572;13.378;2022-11-11T08:09:27;51.70;;;9.90;;
48487;SDS011;34289;48.572;13.378;2022-11-11T08:11:53;32.90;;;8.63;;
48487;SDS011;34289;48.572;13.378;2022-11-11T08:14:37;22.08;;;8.20;;
48487;SDS011;34289;48.572;13.378;2022-11-11T08:17:03;24.40;;;7.47;;
48487;SDS011;34289;48.572;13.378;2022-11-11T08:19:29;52.60;;;8.15;;
48487;SDS011;34289;48.572;13.378;2022-11-11T08:21:55;64.22;;;8.00;;
48487;SDS011;34289;48.572;13.378;2022-11-11T08:24:24;7.78;;;6.53;;
48487;SDS011;34289;48.572;13.378;2022-11-11T08:26:50;25.38;;;6.88;;
48487;SDS011;34289;48.572;13.378;2022-11-11T08:29:17;23.30;;;7.43;;
48487;SDS011;34289;48.572;13.378;2022-11-11T08:31:45;121.03;;;8.98;;
48487;SDS011;34289;48.572;13.378;2022-11-11T08:34:11;135.95;;;9.20;;
48487;SDS011;34289;48.572;13.378;2022-11-11T08:36:37;54.05;;;7.30;;
48487;SDS011;34289;48.572;13.378;2022-11-11T08:39:05;26.27;;;7.35;;
48487;SDS011;34289;48.572;13.378;2022-11-11T08:41:31;305.80;;;11.73;;
48487;SDS011;34289;48.572;13.378;2022-11-11T08:43:57;48.20;;;7.32;;
48487;SDS011;34289;48.572;13.378;2022-11-11T08:46:25;76.50;;;8.70;;
48487;SDS011;34289;48.572;13.378;2022-11-11T08:48:51;33.25;;;7.00;;
48487;SDS011;34289;48.572;13.378;2022-11-11T08:51:20;33.63;;;6.68;;
48487;SDS011;34289;48.572;13.378;2022-11-11T08:53:49;13.48;;;6.72;;
48487;SDS011;34289;48.572;13.378;2022-11-11T08:56:15;78.68;;;7.30;;
48487;SDS011;34289;48.572;13.378;2022-11-11T08:58:41;65.57;;;7.47;;
48487;SDS011;34289;48.572;13.378;2022-11-11T09:01:10;33.67;;;6.90;;
48487;SDS011;34289;48.572;13.378;2022-11-11T09:03:37;39.80;;;6.85;;
48487;SDS011;34289;48.572;13.378;2022-11-11T09:06:03;12.90;;;6.13;;
48487;SDS011;34289;48.572;13.378;2022-11-11T09:08:29;15.57;;;6.70;;
48487;SDS011;34289;48.572;13.378;2022-11-11T09:10:56;9.98;;;6.22;;
48487;SDS011;34289;48.572;13.378;2022-11-11T09:13:22;31.42;;;6.20;;
48487;SDS011;34289;48.572;13.378;2022-11-11T09:15:48;47.25;;;6.78;;
48487;SDS011;34289;48.572;13.378;2022-11-11T09:18:14;8.55;;;5.70;;
48487;SDS011;34289;48.572;13.378;2022-11-11T09:20:40;11.52;;;5.55;;
48487;SDS011;34289;48.572;13.378;2022-11-11T09:23:09;6.45;;;5.70;;
48487;SDS011;34289;48.572;13.378;2022-11-11T09:25:35;5.93;;;4.85;;
48487;SDS011;34289;48.572;13.378;2022-11-11T09:28:01;19.20;;;6.20;;
48487;SDS011;34289;48.572;13.378;2022-11-11T09:30:28;26.40;;;6.45;;
48487;SDS011;34289;48.572;13.378;2022-11-11T09:32:54;8.82;;;6.10;;
48487;SDS011;34289;48.572;13.378;2022-11-11T09:35:20;7.85;;;7.00;;
48487;SDS011;34289;48.572;13.378;2022-11-11T09:37:56;18.92;;;6.88;;
48487;SDS011;34289;48.572;13.378;2022-11-11T09:40:28;8.00;;;6.60;;
48487;SDS011;34289;48.572;13.378;2022-11-11T09:45:40;7.90;;;6.60;;
48487;SDS011;34289;48.572;13.378;2022-11-11T09:50:54;21.15;;;6.28;;
48487;SDS011;34289;48.572;13.378;2022-11-11T09:53:26;11.15;;;6.10;;
48487;SDS011;34289;48.572;13.378;2022-11-11T09:55:59;9.00;;;6.28;;
48487;SDS011;34289;48.572;13.378;2022-11-11T09:58:38;14.32;;;6.32;;
48487;SDS011;34289;48.572;13.378;2022-11-11T10:01:14;28.50;;;6.30;;
48487;SDS011;34289;48.572;13.378;2022-11-11T10:04:54;6.15;;;5.55;;
48487;SDS011;34289;48.572;13.378;2022-11-11T10:06:46;6.10;;;5.47;;
48487;SDS011;34289;48.572;13.378;2022-11-11T10:09:19;8.25;;;6.03;;
48487;SDS011;34289;48.572;13.378;2022-11-11T10:14:44;6.75;;;5.32;;
48487;SDS011;34289;48.572;13.378;2022-11-11T10:20:13;10.55;;;6.22;;
48487;SDS011;34289;48.572;13.378;2022-11-11T10:22:54;12.02;;;6.70;;
48487;SDS011;34289;48.572;13.378;2022-11-11T10:25:27;9.88;;;7.93;;
48487;SDS011;34289;48.572;13.378;2022-11-11T10:27:55;8.13;;;6.53;;
48487;SDS011;34289;48.572;13.378;2022-11-11T10:30:31;10.60;;;7.50;;
48487;SDS011;34289;48.572;13.378;2022-11-11T10:35:34;9.80;;;7.32;;
48487;SDS011;34289;48.572;13.378;2022-11-11T10:40:42;7.95;;;7.15;;
48487;SDS011;34289;48.572;13.378;2022-11-11T10:43:20;9.80;;;7.65;;
48487;SDS011;34289;48.572;13.378;2022-11-11T10:45:59;9.50;;;7.20;;
48487;SDS011;34289;48.572;13.378;2022-11-11T10:48:45;9.00;;;7.55;;
48487;SDS011;34289;48.572;13.378;2022-11-11T10:51:14;12.07;;;7.65;;
48487;SDS011;34289;48.572;13.378;2022-11-11T10:56:16;9.07;;;7.30;;
48487;SDS011;34289;48.572;13.378;2022-11-11T11:01:36;7.20;;;6.38;;
48487;SDS011;34289;48.572;13.378;2022-11-11T11:04:14;9.60;;;7.25;;
48487;SDS011;34289;48.572;13.378;2022-11-11T11:06:50;8.98;;;7.80;;
48487;SDS011;34289;48.572;13.378;2022-11-11T11:09:20;9.80;;;6.93;;
48487;SDS011;34289;48.572;13.378;2022-11-11T11:14:19;19.27;;;14.30;;
48487;SDS011;34289;48.572;13.378;2022-11-11T11:16:54;9.15;;;7.78;;
48487;SDS011;34289;48.572;13.378;2022-11-11T11:19:25;10.88;;;7.88;;
48487;SDS011;34289;48.572;13.378;2022-11-11T11:21:53;12.60;;;7.93;;
48487;SDS011;34289;48.572;13.378;2022-11-11T11:26:47;11.43;;;8.35;;
48487;SDS011;34289;48.572;13.378;2022-11-11T11:29:22;14.52;;;9.50;;
48487;SDS011;34289;48.572;13.378;2022-11-11T11:31:54;5.97;;;5.38;;
48487;SDS011;34289;48.572;13.378;2022-11-11T11:34:20;9.52;;;7.35;;
48487;SDS011;34289;48.572;13.378;2022-11-11T11:36:58;6.85;;;6.15;;
48487;SDS011;34289;48.572;13.378;2022-11-11T11:39:34;11.13;;;7.22;;
48487;SDS011;34289;48.572;13.378;2022-11-11T11:42:01;10.35;;;5.70;;
48487;SDS011;34289;48.572;13.378;2022-11-11T11:44:29;6.20;;;5.60;;
48487;SDS011;34289;48.572;13.378;2022-11-11T12:01:41;6.18;;;5.43;;
48487;SDS011;34289;48.572;13.378;2022-11-11T12:04:33;9.02;;;5.95;;
48487;SDS011;34289;48.572;13.378;2022-11-11T12:09:42;13.45;;;8.02;;
48487;SDS011;34289;48.572;13.378;2022-11-11T12:12:21;10.15;;;6.90;;
48487;SDS011;34289;48.572;13.378;2022-11-11T12:15:30;11.57;;;6.38;;
48487;SDS011;34289;48.572;13.378;2022-11-11T12:23:48;8.32;;;6.63;;
48487;SDS011;34289;48.572;13.378;2022-11-11T12:26:44;8.38;;;6.45;;
48487;SDS011;34289;48.572;13.378;2022-11-11T12:32:23;9.02;;;6.68;;
48487;SDS011;34289;48.572;13.378;2022-11-11T12:44:02;9.75;;;7.22;;
48487;SDS011;34289;48.572;13.378;2022-11-11T12:46:37;10.48;;;7.55;;
48487;SDS011;34289;48.572;13.378;2022-11-11T13:00:24;13.23;;;8.05;;
48487;SDS011;34289;48.572;13.378;2022-11-11T13:08:50;11.85;;;8.02;;
48487;SDS011;34289;48.572;13.378;2022-11-11T13:17:00;14.20;;;7.72;;
48487;SDS011;34289;48.572;13.378;2022-11-11T13:22:28;12.23;;;7.30;;
48487;SDS011;34289;48.572;13.378;2022-11-11T13:24:55;9.20;;;7.28;;
48487;SDS011;34289;48.572;13.378;2022-11-11T13:27:36;7.85;;;6.88;;
48487;SDS011;34289;48.572;13.378;2022-11-11T13:33:26;9.85;;;6.70;;
48487;SDS011;34289;48.572;13.378;2022-11-11T13:36:21;7.95;;;6.28;;
48487;SDS011;34289;48.572;13.378;2022-11-11T13:39:00;6.25;;;5.18;;
48487;SDS011;34289;48.572;13.378;2022-11-11T13:41:31;6.30;;;5.65;;
48487;SDS011;34289;48.572;13.378;2022-11-11T13:44:03;9.00;;;5.97;;
48487;SDS011;34289;48.572;13.378;2022-11-11T13:49:05;6.97;;;5.20;;
48487;SDS011;34289;48.572;13.378;2022-11-11T13:51:38;6.22;;;5.38;;
48487;SDS011;34289;48.572;13.378;2022-11-11T13:54:17;6.25;;;5.65;;
48487;SDS011;34289;48.572;13.378;2022-11-11T13:57:07;7.75;;;6.20;;
48487;SDS011;34289;48.572;13.378;2022-11-11T13:59:40;5.50;;;4.93;;
48487;SDS011;34289;48.572;13.378;2022-11-11T14:17:58;7.97;;;6.43;;
48487;SDS011;34289;48.572;13.378;2022-11-11T14:25:48;8.15;;;7.35;;
48487;SDS011;34289;48.572;13.378;2022-11-11T14:29:13;8.38;;;7.57;;
48487;SDS011;34289;48.572;13.378;2022-11-11T14:40:25;8.98;;;7.10;;
48487;SDS011;34289;48.572;13.378;2022-11-11T14:42:53;10.93;;;8.93;;
48487;SDS011;34289;48.572;13.378;2022-11-11T14:47:51;12.07;;;8.02;;
48487;SDS011;34289;48.572;13.378;2022-11-11T14:52:54;10.13;;;9.10;;
48487;SDS011;34289;48.572;13.378;2022-11-11T14:55:35;12.02;;;9.88;;
48487;SDS011;34289;48.572;13.378;2022-11-11T15:01:20;9.93;;;8.90;;
48487;SDS011;34289;48.572;13.378;2022-11-11T15:03:37;11.82;;;9.25;;
48487;SDS011;34289;48.572;13.378;2022-11-11T15:06:31;10.90;;;9.52;;
48487;SDS011;34289;48.572;13.378;2022-11-11T15:09:05;12.63;;;10.70;;
48487;SDS011;34289;48.572;13.378;2022-11-11T15:12:04;11.68;;;9.10;;
48487;SDS011;34289;48.572;13.378;2022-11-11T15:14:48;12.90;;;10.50;;
48487;SDS011;34289;48.572;13.378;2022-11-11T15:30:52;12.07;;;10.35;;
48487;SDS011;34289;48.572;13.378;2022-11-11T15:34:10;13.50;;;11.07;;
48487;SDS011;34289;48.572;13.378;2022-11-11T15:39:16;13.30;;;9.93;;
48487;SDS011;34289;48.572;13.378;2022-11-11T15:41:46;17.13;;;10.48;;
48487;SDS011;34289;48.572;13.378;2022-11-11T15:46:41;32.15;;;14.82;;
48487;SDS011;34289;48.572;13.378;2022-11-11T15:49:14;21.02;;;13.63;;
48487;SDS011;34289;48.572;13.378;2022-11-11T15:52:03;20.83;;;15.75;;
48487;SDS011;34289;48.572;13.378;2022-11-11T15:54:31;20.45;;;14.48;;
48487;SDS011;34289;48.572;13.378;2022-11-11T15:56:58;19.60;;;14.18;;
48487;SDS011;34289;48.572;13.378;2022-11-11T15:59:29;29.42;;;14.93;;
48487;SDS011;34289;48.572;13.378;2022-11-11T16:02:11;18.38;;;14.25;;
48487;SDS011;34289;48.572;13.378;2022-11-11T16:04:46;48.57;;;16.13;;
48487;SDS011;34289;48.572;13.378;2022-11-11T16:07:15;22.90;;;16.38;;
48487;SDS011;34289;48.572;13.378;2022-11-11T16:09:52;22.67;;;15.48;;
48487;SDS011;34289;48.572;13.378;2022-11-11T16:12:27;19.23;;;12.63;;
48487;SDS011;34289;48.572;13.378;2022-11-11T16:15:00;16.65;;;11.80;;
48487;SDS011;34289;48.572;13.378;2022-11-11T16:17:31;15.90;;;12.43;;
48487;SDS011;34289;48.572;13.378;2022-11-11T16:20:02;10.60;;;8.77;;
48487;SDS011;34289;48.572;13.378;2022-11-11T16:22:30;12.68;;;9.82;;
48487;SDS011;34289;48.572;13.378;2022-11-11T16:25:00;12.77;;;10.23;;
48487;SDS011;34289;48.572;13.378;2022-11-11T16:27:29;15.90;;;12.88;;
48487;SDS011;34289;48.572;13.378;2022-11-11T16:30:12;17.30;;;13.00;;
48487;SDS011;34289;48.572;13.378;2022-11-11T16:32:43;23.92;;;12.43;;
48487;SDS011;34289;48.572;13.378;2022-11-11T16:38:10;17.17;;;12.20;;
48487;SDS011;34289;48.572;13.378;2022-11-11T16:45:46;29.58;;;15.95;;
48487;SDS011;34289;48.572;13.378;2022-11-11T16:54:14;36.45;;;26.10;;
48487;SDS011;34289;48.572;13.378;2022-11-11T16:56:41;20.20;;;14.40;;
48487;SDS011;34289;48.572;13.378;2022-11-11T16:59:36;17.00;;;12.13;;
48487;SDS011;34289;48.572;13.378;2022-11-11T17:02:19;24.00;;;12.98;;
48487;SDS011;34289;48.572;13.378;2022-11-11T17:04:48;16.23;;;11.18;;
48487;SDS011;34289;48.572;13.378;2022-11-11T17:10:17;31.27;;;15.73;;
48487;SDS011;34289;48.572;13.378;2022-11-11T17:12:45;21.02;;;16.15;;
48487;SDS011;34289;48.572;13.378;2022-11-11T17:15:14;30.92;;;16.70;;
48487;SDS011;34289;48.572;13.378;2022-11-11T17:17:41;22.38;;;17.50;;
48487;SDS011;34289;48.572;13.378;2022-11-11T17:20:15;33.13;;;16.73;;
48487;SDS011;34289;48.572;13.378;2022-11-11T17:22:50;28.83;;;16.85;;
48487;SDS011;34289;48.572;13.378;2022-11-11T17:25:18;16.83;;;13.25;;
48487;SDS011;34289;48.572;13.378;2022-11-11T17:27:44;16.88;;;12.90;;
48487;SDS011;34289;48.572;13.378;2022-11-11T17:30:11;20.52;;;15.63;;
48487;SDS011;34289;48.572;13.378;2022-11-11T17:32:37;21.70;;;15.50;;
48487;SDS011;34289;48.572;13.378;2022-11-11T17:35:03;23.92;;;15.02;;
48487;SDS011;34289;48.572;13.378;2022-11-11T17:37:36;27.58;;;16.10;;
48487;SDS011;34289;48.572;13.378;2022-11-11T17:40:05;40.50;;;17.48;;
48487;SDS011;34289;48.572;13.378;2022-11-11T17:42:32;69.80;;;17.17;;
48487;SDS011;34289;48.572;13.378;2022-11-11T17:44:58;193.45;;;21.52;;